Portada
METAR-TAF:

METAR-TAF

Aeroports :

Xi'an, Xina

latitud: 34-26N, longitud: 108-45E, altitud: 479 m

Observació

L'informe es va fer fa 49 minuts, a les 00:00 UTC
Vent 10 kt del Nord-Est
Temperatura 10°C
Humitat 82%
Pressió 1024 hPa
Visibilitat: 6000 m
Cel cobert a una alçada de 6000 ft

METAR: ZLXY 200000Z 05005MPS 6000 OVC060 10/07 Q1024 NOSIG

Hora: 08:49 (00:49 UTC)

Pronòstic

L'informe es va fer fa 5 hores i 45 minuts, a les 19:04 UTC
Pronòstic vàlid del 20 a les 00 UTC al 20 a les 24 UTC
Vent 8 kt del Est/Nord-Est
Visibilitat: 3000 m
calitja

TAF: ZLXY 191904Z 2000/2024 06004MPS 3000 HZ NSC TX17/2007Z TN10/2022Z

Observacions i pronòstics meteorològics de més de 4000 aeroports (METAR i TAF).

Les estacions disponibles són els punts grocs i vermells al mapa.

Posi el ratolí al punt desitjat per veure el nom de l'estació.

Feu clic per veure les observacions i els pronòstics meteorològics.

Per canviar el mapa: feu clic els botons verds amb una creu de color negre per apropar; al botó verd amb un guió per allunyar la imatge; o en les fletxes verdes per a mapes adjacents.


METAR-TAF: